createdAt,value
2018-04-17T00:00:06.457Z,80.30
2018-04-17T00:00:39.713Z,80.20
2018-04-17T00:01:12.966Z,80.30
2018-04-17T00:01:46.257Z,80.20
2018-04-17T00:02:19.537Z,80.30
2018-04-17T00:02:52.809Z,80.40
2018-04-17T00:03:26.072Z,80.40
2018-04-17T00:03:59.340Z,80.40
2018-04-17T00:04:33.378Z,80.40
2018-04-17T00:05:06.653Z,80.40
2018-04-17T00:05:39.911Z,80.40
2018-04-17T00:06:13.172Z,80.40
2018-04-17T00:06:46.461Z,80.40
2018-04-17T00:07:20.485Z,80.60
2018-04-17T00:07:53.760Z,80.70
2018-04-17T00:08:27.011Z,80.40
2018-04-17T00:09:01.061Z,80.70
2018-04-17T00:09:34.314Z,80.70
2018-04-17T00:10:07.832Z,80.70
2018-04-17T00:10:41.109Z,80.40
2018-04-17T00:11:14.719Z,80.40
2018-04-17T00:11:47.988Z,80.70
2018-04-17T00:12:21.278Z,80.80
2018-04-17T00:12:54.533Z,80.50
2018-04-17T00:13:27.805Z,80.30
2018-04-17T00:14:01.075Z,80.50
2018-04-17T00:14:34.341Z,80.30
2018-04-17T00:15:07.606Z,80.30
2018-04-17T00:15:41.649Z,81.50
2018-04-17T00:16:14.909Z,80.60
2018-04-17T00:16:48.176Z,80.70
2018-04-17T00:17:22.215Z,80.50
2018-04-17T00:17:55.461Z,80.50
2018-04-17T00:18:28.768Z,80.60
2018-04-17T00:19:02.048Z,80.60
2018-04-17T00:19:35.316Z,80.60
2018-04-17T00:20:08.593Z,80.80
2018-04-17T00:20:42.209Z,80.80
2018-04-17T00:21:15.481Z,80.60
2018-04-17T00:21:48.743Z,80.60
2018-04-17T00:22:22.028Z,80.70
2018-04-17T00:22:55.509Z,80.90
2018-04-17T00:23:28.804Z,80.90
2018-04-17T00:24:02.297Z,80.80
2018-04-17T00:24:35.572Z,80.80
2018-04-17T00:25:08.831Z,80.80
2018-04-17T00:25:42.108Z,81.00
2018-04-17T00:26:15.371Z,80.90
2018-04-17T00:26:48.771Z,80.80
2018-04-17T00:27:22.048Z,80.70
2018-04-17T00:27:55.313Z,80.70
2018-04-17T00:28:28.590Z,80.60
2018-04-17T00:29:02.631Z,80.80
2018-04-17T00:29:35.897Z,80.80
2018-04-17T00:30:09.149Z,80.80
2018-04-17T00:30:43.179Z,80.80
2018-04-17T00:31:16.447Z,80.80
2018-04-17T00:31:49.739Z,81.20
2018-04-17T00:32:23.179Z,81.20
2018-04-17T00:32:56.440Z,81.10
2018-04-17T00:33:29.713Z,81.00
2018-04-17T00:34:02.966Z,81.20
2018-04-17T00:34:36.236Z,81.10
2018-04-17T00:35:09.500Z,80.80
2018-04-17T00:35:42.768Z,80.80
2018-04-17T00:36:16.796Z,80.90
2018-04-17T00:36:50.048Z,80.90
2018-04-17T00:37:24.096Z,80.80
2018-04-17T00:37:57.369Z,80.80
2018-04-17T00:38:30.649Z,80.90
2018-04-17T00:39:03.910Z,81.10
2018-04-17T00:39:37.417Z,81.30
2018-04-17T00:40:10.705Z,81.30
2018-04-17T00:40:43.994Z,81.20
2018-04-17T00:41:17.276Z,81.40
2018-04-17T00:41:50.747Z,81.70
2018-04-17T00:42:24.036Z,81.70
2018-04-17T00:42:57.308Z,81.60
2018-04-17T00:43:30.834Z,81.50
2018-04-17T00:44:04.060Z,81.70
2018-04-17T00:44:37.327Z,81.70
2018-04-17T00:45:10.619Z,81.50
2018-04-17T00:45:43.849Z,81.60
2018-04-17T00:46:18.116Z,81.20
2018-04-17T00:46:51.398Z,81.20
2018-04-17T00:47:24.676Z,81.30
2018-04-17T00:47:57.950Z,81.40
2018-04-17T00:48:31.226Z,81.60
2018-04-17T00:49:04.497Z,81.70
2018-04-17T00:49:37.761Z,81.40
2018-04-17T00:50:11.807Z,81.30
2018-04-17T00:50:45.087Z,81.50
2018-04-17T00:51:18.369Z,81.70
2018-04-17T00:51:51.632Z,81.60
2018-04-17T00:52:24.916Z,81.70
2018-04-17T00:52:58.160Z,81.70
2018-04-17T00:53:43.246Z,81.90
2018-04-17T00:54:16.520Z,82.00
2018-04-17T00:54:49.788Z,82.00
2018-04-17T00:55:23.052Z,82.00
2018-04-17T00:55:56.324Z,82.10
2018-04-17T00:56:29.642Z,82.10
2018-04-17T00:57:02.900Z,82.20
2018-04-17T00:57:36.410Z,82.00
2018-04-17T00:58:09.688Z,82.10
2018-04-17T00:58:42.953Z,82.10
2018-04-17T00:59:16.214Z,82.20
2018-04-17T00:59:49.469Z,82.30
2018-04-17T01:00:22.730Z,82.40
2018-04-17T01:00:56.016Z,82.50
2018-04-17T01:01:29.264Z,82.50
2018-04-17T01:02:02.534Z,82.70
2018-04-17T01:02:36.041Z,82.70
2018-04-17T01:03:09.324Z,82.60
2018-04-17T01:03:42.589Z,82.60
2018-04-17T01:04:15.867Z,82.70
2018-04-17T01:04:49.119Z,82.70
2018-04-17T01:05:22.408Z,82.80
2018-04-17T01:05:56.742Z,82.70
2018-04-17T01:06:30.023Z,82.70
2018-04-17T01:07:03.522Z,82.70
2018-04-17T01:07:36.820Z,82.90
2018-04-17T01:08:10.104Z,82.70
2018-04-17T01:08:44.145Z,82.70
2018-04-17T01:09:17.401Z,82.80
2018-04-17T01:09:51.420Z,82.80
2018-04-17T01:10:24.688Z,82.70
2018-04-17T01:10:57.977Z,82.70
2018-04-17T01:11:31.228Z,82.90
2018-04-17T01:12:04.521Z,83.10
2018-04-17T01:12:38.577Z,83.30
2018-04-17T01:13:11.849Z,83.30
2018-04-17T01:13:45.877Z,83.60
2018-04-17T01:14:19.904Z,83.30
2018-04-17T01:14:53.164Z,83.30
2018-04-17T01:15:26.427Z,83.10
2018-04-17T01:15:59.712Z,83.20
2018-04-17T01:16:32.995Z,83.20
2018-04-17T01:17:06.261Z,83.10
2018-04-17T01:17:39.521Z,83.10
2018-04-17T01:18:12.801Z,83.30
2018-04-17T01:18:46.080Z,83.40
2018-04-17T01:19:19.336Z,83.10
2018-04-17T01:19:52.604Z,83.20
2018-04-17T01:20:25.871Z,83.30
2018-04-17T01:20:59.910Z,83.10
2018-04-17T01:21:33.180Z,83.10
2018-04-17T01:22:06.448Z,83.10
2018-04-17T01:22:39.712Z,83.20
2018-04-17T01:23:12.992Z,83.00
2018-04-17T01:23:47.021Z,83.30
2018-04-17T01:24:20.281Z,83.20
2018-04-17T01:24:53.553Z,83.60
2018-04-17T01:25:26.817Z,83.50
2018-04-17T01:26:00.120Z,83.50
2018-04-17T01:26:33.396Z,83.40
2018-04-17T01:27:06.661Z,83.60
2018-04-17T01:27:40.689Z,83.50
2018-04-17T01:28:14.160Z,83.40
2018-04-17T01:28:47.428Z,83.30
2018-04-17T01:29:21.457Z,83.10
2018-04-17T01:29:54.738Z,83.10
2018-04-17T01:30:28.000Z,83.10
2018-04-17T01:31:01.269Z,83.30
2018-04-17T01:31:34.528Z,83.50
2018-04-17T01:32:07.789Z,83.40
2018-04-17T01:32:41.061Z,83.30
2018-04-17T01:33:14.355Z,83.30
2018-04-17T01:33:47.629Z,83.30
2018-04-17T01:34:20.915Z,83.10
2018-04-17T01:34:54.179Z,83.20
2018-04-17T01:35:27.453Z,83.40
2018-04-17T01:36:00.716Z,83.50
2018-04-17T01:36:33.969Z,83.60
2018-04-17T01:37:07.248Z,83.60
2018-04-17T01:37:40.530Z,83.70
2018-04-17T01:38:14.550Z,83.70
2018-04-17T01:38:48.688Z,83.70
2018-04-17T01:39:21.916Z,83.50
2018-04-17T01:39:55.168Z,83.40
2018-04-17T01:40:29.192Z,83.50
2018-04-17T01:41:02.456Z,83.50
2018-04-17T01:41:36.491Z,83.20
2018-04-17T01:42:09.766Z,83.20
2018-04-17T01:42:43.028Z,83.50
2018-04-17T01:43:16.297Z,83.60
2018-04-17T01:43:49.576Z,83.60
2018-04-17T01:44:23.600Z,83.80
2018-04-17T01:44:56.861Z,83.70
2018-04-17T01:45:30.134Z,83.60
2018-04-17T01:46:05.131Z,83.70
2018-04-17T01:46:38.408Z,83.70
2018-04-17T01:47:11.680Z,83.90
2018-04-17T01:47:45.253Z,83.80
2018-04-17T01:48:18.516Z,83.80
2018-04-17T01:48:51.808Z,83.70
2018-04-17T01:49:25.053Z,83.70
2018-04-17T01:49:58.308Z,83.80
2018-04-17T01:50:31.569Z,83.80
2018-04-17T01:51:05.597Z,84.00
2018-04-17T01:51:39.633Z,83.80
2018-04-17T01:52:12.904Z,83.70
2018-04-17T01:52:46.165Z,83.90
2018-04-17T01:53:19.429Z,83.80
2018-04-17T01:53:52.707Z,83.60
2018-04-17T01:54:26.760Z,84.10
2018-04-17T01:55:00.020Z,84.00
2018-04-17T01:55:33.288Z,84.10
2018-04-17T01:56:06.543Z,84.00
2018-04-17T01:56:39.799Z,84.00
2018-04-17T01:57:13.067Z,84.10
2018-04-17T01:57:46.349Z,84.90
2018-04-17T01:58:19.601Z,84.20
2018-04-17T01:58:52.877Z,84.10
2018-04-17T01:59:26.152Z,84.00
2018-04-17T01:59:59.413Z,83.80
2018-04-17T02:00:32.700Z,83.90
2018-04-17T02:01:06.728Z,83.90
2018-04-17T02:01:39.984Z,83.80
2018-04-17T02:02:13.252Z,83.80
2018-04-17T02:02:47.293Z,83.80
2018-04-17T02:03:20.546Z,83.80
2018-04-17T02:03:53.829Z,83.80
2018-04-17T02:04:27.091Z,83.90
2018-04-17T02:05:00.353Z,84.00
2018-04-17T02:05:34.385Z,84.60
2018-04-17T02:06:07.648Z,84.00
2018-04-17T02:06:41.688Z,84.20
2018-04-17T02:07:14.939Z,84.20
2018-04-17T02:07:48.200Z,84.10
2018-04-17T02:08:21.459Z,84.00
2018-04-17T02:08:54.749Z,84.00
2018-04-17T02:09:28.029Z,84.10
2018-04-17T02:10:02.055Z,84.30
2018-04-17T02:10:35.321Z,84.30
2018-04-17T02:11:08.575Z,84.00
2018-04-17T02:11:41.848Z,83.90
2018-04-17T02:12:15.110Z,84.10
2018-04-17T02:12:48.368Z,84.10
2018-04-17T02:13:21.640Z,83.90
2018-04-17T02:13:54.929Z,84.00
2018-04-17T02:14:28.205Z,84.10
2018-04-17T02:15:01.484Z,84.10
2018-04-17T02:15:34.739Z,84.00
2018-04-17T02:16:08.045Z,84.30
2018-04-17T02:16:41.316Z,84.20
2018-04-17T02:17:14.585Z,83.90
2018-04-17T02:17:48.621Z,84.10
2018-04-17T02:18:21.895Z,84.10
2018-04-17T02:18:55.164Z,84.10
2018-04-17T02:19:28.442Z,84.00
2018-04-17T02:20:01.704Z,84.00
2018-04-17T02:20:35.724Z,84.70
2018-04-17T02:21:08.991Z,83.80
2018-04-17T02:21:42.257Z,83.90
2018-04-17T02:22:16.293Z,83.90
2018-04-17T02:22:49.556Z,83.90
2018-04-17T02:23:22.828Z,84.10
2018-04-17T02:23:56.091Z,83.90
2018-04-17T02:24:29.378Z,84.30
2018-04-17T02:25:03.403Z,84.10
2018-04-17T02:25:36.670Z,83.90
2018-04-17T02:26:09.942Z,84.00
2018-04-17T02:26:43.209Z,84.20
2018-04-17T02:27:16.484Z,84.30
2018-04-17T02:27:49.730Z,84.40
2018-04-17T02:28:23.068Z,84.40
2018-04-17T02:28:56.604Z,84.30
2018-04-17T02:29:29.874Z,84.30
2018-04-17T02:30:03.164Z,84.40
2018-04-17T02:30:36.429Z,84.50
2018-04-17T02:31:09.705Z,84.50
2018-04-17T02:31:42.977Z,84.30
2018-04-17T02:32:16.244Z,84.40
2018-04-17T02:32:49.512Z,84.30
2018-04-17T02:33:22.796Z,84.50
2018-04-17T02:33:56.065Z,84.70
2018-04-17T02:34:29.337Z,84.80
2018-04-17T02:35:02.621Z,85.10
2018-04-17T02:35:36.648Z,85.00
2018-04-17T02:36:09.904Z,84.90
2018-04-17T02:36:43.185Z,84.80
2018-04-17T02:37:16.456Z,84.80
2018-04-17T02:37:50.495Z,84.90
2018-04-17T02:38:23.789Z,84.90
2018-04-17T02:38:57.037Z,85.00
2018-04-17T02:39:30.417Z,84.90
2018-04-17T02:40:03.698Z,84.80
2018-04-17T02:40:36.953Z,84.80
2018-04-17T02:41:10.212Z,84.60
2018-04-17T02:41:43.489Z,84.70
2018-04-17T02:42:16.764Z,85.70
2018-04-17T02:42:50.031Z,84.90
2018-04-17T02:43:23.296Z,85.00
2018-04-17T02:43:56.557Z,85.20
2018-04-17T02:44:29.824Z,85.20
2018-04-17T02:45:03.128Z,85.20
2018-04-17T02:45:36.387Z,85.40
2018-04-17T02:46:09.657Z,85.30
2018-04-17T02:46:43.696Z,85.30
2018-04-17T02:47:16.969Z,85.20
2018-04-17T02:47:50.220Z,85.20
2018-04-17T02:48:23.493Z,85.20
2018-04-17T02:48:57.507Z,85.50
2018-04-17T02:49:30.792Z,85.40
2018-04-17T02:50:04.085Z,85.50
2018-04-17T02:50:37.341Z,85.70
2018-04-17T02:51:10.615Z,85.80
2018-04-17T02:51:43.880Z,85.70
2018-04-17T02:52:18.171Z,85.60
2018-04-17T02:52:51.427Z,85.40
2018-04-17T02:53:24.689Z,85.30
2018-04-17T02:53:57.961Z,85.60
2018-04-17T02:54:31.245Z,85.60
2018-04-17T02:55:04.536Z,85.30
2018-04-17T02:55:37.821Z,85.40
2018-04-17T02:56:11.087Z,85.40
2018-04-17T02:56:44.335Z,85.30
2018-04-17T02:57:18.365Z,85.70
2018-04-17T02:57:51.636Z,85.70
2018-04-17T02:58:24.902Z,85.80
2018-04-17T02:58:58.171Z,85.70
2018-04-17T02:59:31.430Z,86.00
2018-04-17T03:00:04.717Z,86.10
2018-04-17T03:00:37.983Z,86.20
2018-04-17T03:01:11.258Z,85.90
2018-04-17T03:01:44.536Z,86.20
2018-04-17T03:02:17.816Z,86.20
2018-04-17T03:02:51.069Z,86.20
2018-04-17T03:03:24.365Z,86.20
2018-04-17T03:03:57.619Z,86.20
2018-04-17T03:04:30.904Z,86.30
2018-04-17T03:05:04.188Z,85.90
2018-04-17T03:05:37.456Z,86.00
2018-04-17T03:06:10.720Z,85.80
2018-04-17T03:06:43.997Z,85.90
2018-04-17T03:07:17.270Z,86.00
2018-04-17T03:07:50.538Z,86.20
2018-04-17T03:08:24.619Z,86.10
2018-04-17T03:08:57.877Z,86.00
2018-04-17T03:09:31.156Z,85.90
2018-04-17T03:10:04.525Z,86.00
2018-04-17T03:10:37.798Z,86.00
2018-04-17T03:11:11.063Z,86.00
2018-04-17T03:11:44.320Z,86.10
2018-04-17T03:12:18.348Z,86.20
2018-04-17T03:12:51.612Z,86.20
2018-04-17T03:13:25.159Z,86.10
2018-04-17T03:13:58.442Z,86.20
2018-04-17T03:14:31.700Z,86.40
2018-04-17T03:15:04.969Z,86.60
2018-04-17T03:15:38.254Z,87.10
2018-04-17T03:16:11.539Z,86.10
2018-04-17T03:16:44.812Z,86.40
2018-04-17T03:17:18.074Z,86.50
2018-04-17T03:17:51.348Z,86.50
2018-04-17T03:18:24.615Z,86.40
2018-04-17T03:18:58.641Z,86.30
2018-04-17T03:19:31.910Z,86.30
2018-04-17T03:20:05.194Z,86.10
2018-04-17T03:20:38.472Z,86.30
2018-04-17T03:21:11.756Z,86.20
2018-04-17T03:21:45.036Z,86.20
2018-04-17T03:22:18.297Z,86.40
2018-04-17T03:22:51.568Z,86.20
2018-04-17T03:23:24.891Z,86.20
2018-04-17T03:23:58.160Z,86.20
2018-04-17T03:24:31.426Z,86.30
2018-04-17T03:25:05.464Z,86.70
2018-04-17T03:25:38.728Z,86.70
2018-04-17T03:26:11.997Z,86.70
2018-04-17T03:26:45.273Z,86.60
2018-04-17T03:27:18.551Z,86.70
2018-04-17T03:27:51.825Z,86.60
2018-04-17T03:28:25.104Z,86.40
2018-04-17T03:28:58.381Z,86.40
2018-04-17T03:29:31.645Z,87.50
2018-04-17T03:30:05.684Z,86.80
2018-04-17T03:30:38.955Z,86.70
2018-04-17T03:31:12.248Z,87.00
2018-04-17T03:31:46.298Z,86.60
2018-04-17T03:32:19.564Z,86.60
2018-04-17T03:32:52.840Z,86.70
2018-04-17T03:33:26.109Z,86.70
2018-04-17T03:33:59.389Z,86.80
2018-04-17T03:34:32.648Z,86.60
2018-04-17T03:35:05.919Z,86.50
2018-04-17T03:35:39.388Z,86.80
2018-04-17T03:36:12.665Z,86.80
2018-04-17T03:36:45.928Z,87.00
2018-04-17T03:37:19.224Z,87.00
2018-04-17T03:37:52.506Z,86.90
2018-04-17T03:38:25.798Z,87.10
2018-04-17T03:38:59.062Z,87.20
2018-04-17T03:39:32.340Z,87.10
2018-04-17T03:40:05.600Z,86.90
2018-04-17T03:40:38.890Z,86.90
2018-04-17T03:41:12.916Z,87.20
2018-04-17T03:41:46.797Z,87.00
2018-04-17T03:42:20.052Z,87.10
2018-04-17T03:42:54.112Z,86.80
2018-04-17T03:43:27.377Z,86.80
2018-04-17T03:44:00.647Z,86.60
2018-04-17T03:44:33.917Z,86.70
2018-04-17T03:45:07.181Z,86.90
2018-04-17T03:45:41.257Z,87.40
2018-04-17T03:46:14.816Z,87.40
2018-04-17T03:46:48.084Z,87.30
2018-04-17T03:47:21.377Z,87.10
2018-04-17T03:47:54.655Z,86.90
2018-04-17T03:48:27.932Z,86.90
2018-04-17T03:49:01.194Z,87.10
2018-04-17T03:49:34.466Z,87.30
2018-04-17T03:50:07.729Z,87.50
2018-04-17T03:50:41.023Z,87.70
2018-04-17T03:51:14.288Z,87.50
2018-04-17T03:51:47.564Z,87.40
2018-04-17T03:52:21.639Z,87.40
2018-04-17T03:52:54.914Z,87.40
2018-04-17T03:53:28.203Z,87.50
2018-04-17T03:54:01.472Z,87.60
2018-04-17T03:54:34.755Z,87.70
2018-04-17T03:55:08.021Z,87.90
2018-04-17T03:55:41.305Z,87.80
2018-04-17T03:56:14.605Z,87.60
2018-04-17T03:56:47.905Z,87.60
2018-04-17T03:57:21.157Z,87.50
2018-04-17T03:57:54.436Z,87.60
2018-04-17T03:58:28.012Z,87.70
2018-04-17T03:59:01.277Z,87.70
2018-04-17T03:59:34.553Z,87.90
2018-04-17T04:00:07.869Z,87.80
2018-04-17T04:00:41.172Z,88.00
2018-04-17T04:01:15.218Z,87.80
2018-04-17T04:01:48.476Z,87.80
2018-04-17T04:02:21.750Z,87.80
2018-04-17T04:02:55.039Z,87.90
2018-04-17T04:03:28.320Z,88.00
2018-04-17T04:04:01.552Z,87.80
2018-04-17T04:04:34.853Z,87.90
2018-04-17T04:05:08.397Z,88.00
2018-04-17T04:05:41.673Z,87.70
2018-04-17T04:06:15.744Z,88.10
2018-04-17T04:06:49.008Z,88.10
2018-04-17T04:07:22.309Z,88.10
2018-04-17T04:07:55.573Z,88.10
2018-04-17T04:08:28.843Z,87.90
2018-04-17T04:09:02.898Z,87.70
2018-04-17T04:09:36.164Z,87.60
2018-04-17T04:10:09.440Z,88.30
2018-04-17T04:10:42.700Z,88.30
2018-04-17T04:11:15.973Z,88.40
2018-04-17T04:11:49.235Z,88.20
2018-04-17T04:12:23.289Z,88.60
2018-04-17T04:12:56.549Z,88.40
2018-04-17T04:13:29.809Z,88.20
2018-04-17T04:14:03.104Z,88.10
2018-04-17T04:14:36.379Z,88.20
2018-04-17T04:15:09.917Z,88.20
2018-04-17T04:15:43.205Z,88.30
2018-04-17T04:16:28.502Z,88.40
2018-04-17T04:17:14.318Z,88.30
2018-04-17T04:17:59.356Z,88.30
2018-04-17T04:18:44.670Z,88.50
2018-04-17T04:19:30.720Z,88.10
2018-04-17T04:20:15.710Z,88.10
2018-04-17T04:21:01.576Z,88.30
2018-04-17T04:21:46.654Z,88.30
2018-04-17T04:22:32.063Z,88.60
2018-04-17T04:23:17.080Z,88.50
2018-04-17T04:24:02.173Z,88.60
2018-04-17T04:24:47.175Z,88.80
2018-04-17T04:25:42.936Z,88.70
2018-04-17T04:26:28.002Z,88.70
2018-04-17T04:27:01.476Z,88.70
2018-04-17T04:27:34.746Z,88.60
2018-04-17T04:28:08.239Z,88.90
2018-04-17T04:28:41.524Z,89.00
2018-04-17T04:29:15.464Z,89.00
2018-04-17T04:29:49.488Z,89.10
2018-04-17T04:30:22.995Z,89.10
2018-04-17T04:30:56.481Z,89.00
2018-04-17T04:31:29.767Z,88.80
2018-04-17T04:32:03.024Z,88.70
2018-04-17T04:32:36.296Z,88.90
2018-04-17T04:33:09.572Z,89.40
2018-04-17T04:33:42.852Z,89.40
2018-04-17T04:34:16.124Z,89.30
2018-04-17T04:34:49.434Z,89.50
2018-04-17T04:35:22.735Z,89.50
2018-04-17T04:35:55.977Z,89.60
2018-04-17T04:36:29.245Z,89.70
2018-04-17T04:37:02.528Z,89.70
2018-04-17T04:37:35.809Z,89.70
2018-04-17T04:38:09.102Z,89.90
2018-04-17T04:38:42.364Z,89.80
2018-04-17T04:39:15.636Z,89.40
2018-04-17T04:39:48.918Z,89.40
2018-04-17T04:40:22.196Z,89.40
2018-04-17T04:40:55.457Z,89.40
2018-04-17T04:41:29.513Z,89.10
2018-04-17T04:42:02.777Z,89.20
2018-04-17T04:42:36.065Z,89.30
2018-04-17T04:43:09.572Z,89.20
2018-04-17T04:43:42.851Z,89.00
2018-04-17T04:44:16.333Z,88.90
2018-04-17T04:44:49.836Z,88.80
2018-04-17T04:45:23.102Z,88.70
2018-04-17T04:45:56.694Z,88.90
2018-04-17T04:46:29.978Z,88.90
2018-04-17T04:47:03.259Z,89.00
2018-04-17T04:47:36.543Z,88.90
2018-04-17T04:48:09.822Z,89.00
2018-04-17T04:48:43.113Z,88.80
2018-04-17T04:49:16.374Z,88.70
2018-04-17T04:49:49.662Z,89.00
2018-04-17T04:50:22.940Z,89.10
2018-04-17T04:50:56.230Z,89.00
2018-04-17T04:51:29.801Z,88.80
2018-04-17T04:52:03.086Z,88.80
2018-04-17T04:52:36.378Z,88.70
2018-04-17T04:53:09.652Z,88.80
2018-04-17T04:53:42.927Z,89.10
2018-04-17T04:54:16.255Z,89.30
2018-04-17T04:54:49.543Z,89.20
2018-04-17T04:55:22.811Z,89.00
2018-04-17T04:55:56.082Z,89.00
2018-04-17T04:56:29.358Z,89.10
2018-04-17T04:57:03.405Z,89.10
2018-04-17T04:57:36.746Z,89.00
2018-04-17T04:58:09.963Z,88.90
2018-04-17T04:58:43.244Z,88.90
2018-04-17T04:59:16.530Z,89.00
2018-04-17T04:59:49.798Z,89.00
2018-04-17T05:00:23.078Z,89.00
2018-04-17T05:00:56.348Z,89.10
2018-04-17T05:01:29.636Z,89.30
2018-04-17T05:02:02.921Z,89.20
2018-04-17T05:02:36.205Z,89.00
2018-04-17T05:03:09.477Z,89.30
2018-04-17T05:03:42.767Z,89.30
2018-04-17T05:04:16.040Z,89.20
2018-04-17T05:04:49.405Z,89.00
2018-04-17T05:05:22.621Z,89.20
2018-04-17T05:05:56.653Z,89.50
2018-04-17T05:06:30.733Z,89.20
2018-04-17T05:07:04.024Z,89.20
2018-04-17T05:07:37.296Z,88.90
2018-04-17T05:08:10.620Z,88.90
2018-04-17T05:08:43.896Z,88.90
2018-04-17T05:09:17.152Z,89.20
2018-04-17T05:09:51.192Z,89.20
2018-04-17T05:10:24.470Z,90.00
2018-04-17T05:10:57.757Z,89.00
2018-04-17T05:11:31.037Z,89.20
2018-04-17T05:12:04.336Z,89.10
2018-04-17T05:12:37.599Z,89.00
2018-04-17T05:13:10.888Z,88.90
2018-04-17T05:13:44.157Z,89.10
2018-04-17T05:14:17.449Z,89.30
2018-04-17T05:14:51.496Z,89.40
2018-04-17T05:15:25.533Z,89.40
2018-04-17T05:15:58.801Z,89.30
2018-04-17T05:16:32.086Z,89.30
2018-04-17T05:17:05.378Z,89.30
2018-04-17T05:17:38.655Z,89.40
2018-04-17T05:18:11.933Z,89.50
2018-04-17T05:18:45.201Z,89.70
2018-04-17T05:19:18.477Z,89.50
2018-04-17T05:19:51.760Z,89.40
2018-04-17T05:20:25.039Z,89.40
2018-04-17T05:20:58.313Z,89.60
2018-04-17T05:21:31.593Z,89.40
2018-04-17T05:22:04.888Z,89.50
2018-04-17T05:22:38.181Z,89.50
2018-04-17T05:23:11.464Z,89.60
2018-04-17T05:23:44.799Z,89.20
2018-04-17T05:24:18.260Z,89.40
2018-04-17T05:24:51.540Z,89.50
2018-04-17T05:25:24.820Z,89.70
2018-04-17T05:25:58.109Z,89.50
2018-04-17T05:26:31.386Z,89.40
2018-04-17T05:27:04.676Z,89.20
2018-04-17T05:27:37.981Z,89.00
2018-04-17T05:28:11.253Z,89.30
2018-04-17T05:28:44.548Z,89.20
2018-04-17T05:29:17.826Z,89.40
2018-04-17T05:29:51.097Z,89.30
2018-04-17T05:30:24.369Z,89.20
2018-04-17T05:30:58.399Z,89.40
2018-04-17T05:31:31.915Z,89.20
2018-04-17T05:32:05.204Z,89.60
2018-04-17T05:32:38.486Z,89.30
2018-04-17T05:33:11.781Z,89.40
2018-04-17T05:33:45.057Z,89.80
2018-04-17T05:34:18.390Z,89.90
2018-04-17T05:34:51.602Z,90.00
2018-04-17T05:35:24.888Z,90.00
2018-04-17T05:35:58.155Z,89.30
2018-04-17T05:36:31.432Z,89.40
2018-04-17T05:37:04.728Z,89.80
2018-04-17T05:37:38.002Z,89.60
2018-04-17T05:38:11.292Z,89.40
2018-04-17T05:38:44.569Z,89.10
2018-04-17T05:39:17.838Z,90.00
2018-04-17T05:39:51.129Z,89.20
2018-04-17T05:40:24.421Z,89.40
2018-04-17T05:40:57.689Z,89.70
2018-04-17T05:41:30.964Z,89.70
2018-04-17T05:42:04.265Z,89.50
2018-04-17T05:42:38.308Z,89.30
2018-04-17T05:43:11.585Z,89.30
2018-04-17T05:43:44.855Z,89.50
2018-04-17T05:44:18.163Z,89.80
2018-04-17T05:44:51.434Z,89.60
2018-04-17T05:45:24.713Z,89.50
2018-04-17T05:45:57.984Z,89.30
2018-04-17T05:46:31.276Z,89.40
2018-04-17T05:47:04.557Z,89.50
2018-04-17T05:47:37.844Z,89.80
2018-04-17T05:48:11.879Z,89.70
2018-04-17T05:48:45.938Z,89.50
2018-04-17T05:49:19.220Z,89.50
2018-04-17T05:49:52.487Z,89.20
2018-04-17T05:50:25.747Z,89.10
2018-04-17T05:50:59.027Z,89.50
2018-04-17T05:51:32.293Z,89.30
2018-04-17T05:52:05.576Z,89.20
2018-04-17T05:52:39.640Z,89.10
2018-04-17T05:53:12.925Z,89.10
2018-04-17T05:53:46.224Z,89.00
2018-04-17T05:54:19.496Z,89.10
2018-04-17T05:54:53.532Z,89.30
2018-04-17T05:55:26.814Z,89.00
2018-04-17T05:56:00.204Z,88.80
2018-04-17T05:56:33.390Z,88.60
2018-04-17T05:57:06.677Z,88.60
2018-04-17T05:57:39.970Z,88.80
2018-04-17T05:58:13.261Z,88.80
2018-04-17T05:58:46.547Z,88.40
2018-04-17T05:59:19.843Z,88.60
2018-04-17T05:59:53.123Z,88.80
2018-04-17T06:00:27.169Z,88.40
2018-04-17T06:01:00.684Z,88.40
2018-04-17T06:01:33.964Z,88.30
2018-04-17T06:02:07.249Z,88.20
2018-04-17T06:02:40.533Z,88.10
2018-04-17T06:03:13.829Z,88.20
2018-04-17T06:03:47.874Z,88.00
2018-04-17T06:04:21.145Z,87.90
2018-04-17T06:04:54.408Z,88.10
2018-04-17T06:05:27.701Z,88.00
2018-04-17T06:06:00.959Z,88.80
2018-04-17T06:06:34.246Z,88.60
2018-04-17T06:07:07.517Z,88.30
2018-04-17T06:07:41.585Z,88.10
2018-04-17T06:08:14.868Z,88.10
2018-04-17T06:08:48.151Z,87.80
2018-04-17T06:09:21.438Z,87.60
2018-04-17T06:09:54.994Z,87.70
2018-04-17T06:10:28.273Z,87.40
2018-04-17T06:11:01.552Z,87.90
2018-04-17T06:11:34.824Z,87.70
2018-04-17T06:12:08.121Z,88.40
2018-04-17T06:12:42.173Z,88.10
2018-04-17T06:13:15.456Z,88.10
2018-04-17T06:13:48.733Z,88.00
2018-04-17T06:14:22.013Z,87.50
2018-04-17T06:14:55.287Z,87.10
2018-04-17T06:15:28.564Z,87.30
2018-04-17T06:16:01.833Z,86.90
2018-04-17T06:16:35.877Z,87.00
2018-04-17T06:17:09.162Z,87.10
2018-04-17T06:17:42.448Z,86.80
2018-04-17T06:18:15.708Z,87.00
2018-04-17T06:18:48.988Z,87.30
2018-04-17T06:19:22.256Z,87.40
2018-04-17T06:19:55.537Z,87.50
2018-04-17T06:20:28.825Z,88.00
2018-04-17T06:21:02.098Z,88.40
2018-04-17T06:21:35.384Z,87.40
2018-04-17T06:22:08.649Z,88.60
2018-04-17T06:22:41.937Z,88.00
2018-04-17T06:23:15.255Z,88.10
2018-04-17T06:23:48.488Z,88.50
2018-04-17T06:24:21.772Z,88.00
2018-04-17T06:24:55.040Z,87.50
2018-04-17T06:25:28.328Z,88.00
2018-04-17T06:26:01.672Z,88.20
2018-04-17T06:26:34.897Z,88.10
2018-04-17T06:27:08.932Z,87.80
2018-04-17T06:27:42.241Z,87.80
2018-04-17T06:28:15.528Z,88.00
2018-04-17T06:28:49.565Z,87.90
2018-04-17T06:29:22.844Z,87.90
2018-04-17T06:29:56.110Z,87.60
2018-04-17T06:30:29.381Z,89.00
2018-04-17T06:31:02.668Z,89.90
2018-04-17T06:31:35.940Z,89.00
2018-04-17T06:32:10.005Z,88.80
2018-04-17T06:32:43.579Z,88.70
2018-04-17T06:33:16.862Z,89.20
2018-04-17T06:33:50.128Z,89.40
2018-04-17T06:34:23.397Z,88.90
2018-04-17T06:34:56.669Z,88.80
2018-04-17T06:35:29.944Z,89.70
2018-04-17T06:36:03.224Z,89.00
2018-04-17T06:36:36.756Z,89.30
2018-04-17T06:37:10.063Z,89.80
2018-04-17T06:37:43.612Z,89.40
2018-04-17T06:38:16.889Z,89.40
2018-04-17T06:38:50.503Z,89.10
2018-04-17T06:39:23.772Z,89.50
2018-04-17T06:39:57.072Z,89.80
2018-04-17T06:40:30.348Z,89.40
2018-04-17T06:41:03.621Z,89.20
2018-04-17T06:41:36.917Z,89.30
2018-04-17T06:42:10.185Z,89.60
2018-04-17T06:42:43.478Z,89.10
2018-04-17T06:43:17.527Z,88.00
2018-04-17T06:43:50.813Z,87.90
2018-04-17T06:44:24.107Z,88.40
2018-04-17T06:44:57.406Z,89.10
2018-04-17T06:45:30.676Z,89.00
2018-04-17T06:46:03.974Z,88.60
2018-04-17T06:46:37.262Z,88.20
2018-04-17T06:47:11.300Z,89.00
2018-04-17T06:47:44.611Z,89.10
2018-04-17T06:48:17.869Z,89.10
2018-04-17T06:48:51.169Z,89.50
2018-04-17T06:49:24.449Z,89.60
2018-04-17T06:49:57.735Z,88.50
2018-04-17T06:50:31.036Z,88.40
2018-04-17T06:51:05.100Z,88.10
2018-04-17T06:51:38.368Z,88.00
2018-04-17T06:52:11.650Z,88.60
2018-04-17T06:52:45.725Z,88.00
2018-04-17T06:53:19.770Z,88.30
2018-04-17T06:53:53.052Z,88.30
2018-04-17T06:54:26.389Z,87.90
2018-04-17T06:54:59.648Z,87.80
2018-04-17T06:55:32.928Z,88.50
2018-04-17T06:56:06.241Z,88.50
2018-04-17T06:56:39.509Z,88.70
2018-04-17T06:57:12.776Z,88.00
2018-04-17T06:57:46.049Z,87.80
2018-04-17T06:58:19.353Z,87.30
2018-04-17T06:58:53.401Z,88.80
2018-04-17T06:59:26.676Z,88.00
2018-04-17T06:59:59.973Z,87.70
2018-04-17T07:00:33.280Z,87.80
2018-04-17T07:01:06.553Z,87.10
2018-04-17T07:01:39.825Z,86.20
2018-04-17T07:02:13.879Z,86.60
2018-04-17T07:02:47.151Z,86.60
2018-04-17T07:03:20.490Z,86.50
2018-04-17T07:03:53.745Z,86.90
2018-04-17T07:04:27.026Z,86.80
2018-04-17T07:05:00.317Z,87.20
2018-04-17T07:05:34.352Z,87.90
2018-04-17T07:06:07.627Z,87.80
2018-04-17T07:06:40.912Z,87.20
2018-04-17T07:07:14.202Z,87.10
2018-04-17T07:07:47.485Z,87.70
2018-04-17T07:08:20.760Z,87.90
2018-04-17T07:08:54.051Z,87.40
2018-04-17T07:09:27.334Z,86.10
2018-04-17T07:10:01.376Z,87.20
2018-04-17T07:10:35.425Z,87.20
2018-04-17T07:11:08.920Z,86.40
2018-04-17T07:11:42.240Z,87.00
2018-04-17T07:12:15.496Z,86.50
2018-04-17T07:12:48.773Z,86.60